Time;durP1;ratioP1;P1;durP2;ratioP2;P2;SDS_P1;SDS_P2;PMS_P1;PMS_P2;Temp;Humidity;BMP_temperature;BMP_pressure;BME280_temperature;BME280_humidity;BME280_pressure;Samples;Min_cycle;Max_cycle;Signal;HPM_P1;HPM_P2
2021/09/24 00:02:07;;;;;;;25.60;3.70;;;;;;;12.52;66.21;99750.84;1773342;80;26567;-64
2021/09/24 00:04:36;;;;;;;20.05;3.15;;;;;;;12.55;65.95;99715.70;1779838;79;25294;-64
2021/09/24 00:07:01;;;;;;;24.90;3.37;;;;;;;12.51;65.95;99719.55;1770156;79;28084;-64
2021/09/24 00:09:27;;;;;;;24.65;3.65;;;;;;;12.51;65.70;99711.49;1779203;79;25704;-64
2021/09/24 00:11:53;;;;;;;19.17;3.35;;;;;;;12.48;65.77;99718.89;1782052;79;25750;-65
2021/09/24 00:14:19;;;;;;;26.42;3.58;;;;;;;12.47;65.55;99716.69;1784890;79;25808;-64
2021/09/24 00:16:45;;;;;;;23.55;3.87;;;;;;;12.47;65.36;99727.92;1779826;79;26342;-65
2021/09/24 00:19:10;;;;;;;28.40;4.50;;;;;;;12.46;65.08;99728.41;1778605;79;29519;-65
2021/09/24 00:21:36;;;;;;;21.15;2.87;;;;;;;12.45;65.41;99711.03;1782637;79;25866;-65
2021/09/24 00:24:02;;;;;;;34.03;4.67;;;;;;;12.42;65.20;99717.47;1786286;79;25721;-65
2021/09/24 00:26:29;;;;;;;25.43;3.60;;;;;;;12.37;65.52;99720.94;1791899;78;27838;-65
2021/09/24 00:28:57;;;;;;;21.17;3.22;;;;;;;12.31;65.14;99736.13;1780839;79;25755;-65
2021/09/24 00:31:27;;;;;;;37.53;4.05;;;;;;;12.30;65.21;99731.23;1792195;79;27393;-65
2021/09/24 00:33:53;;;;;;;33.50;4.78;;;;;;;12.29;64.94;99734.87;1772288;79;25993;-65
2021/09/24 00:36:18;;;;;;;26.23;4.08;;;;;;;12.29;64.39;99746.97;1784095;79;25722;-65
2021/09/24 00:38:44;;;;;;;28.25;4.05;;;;;;;12.27;64.81;99741.31;1780432;79;25814;-65
2021/09/24 00:41:11;;;;;;;18.73;3.02;;;;;;;12.24;64.93;99751.78;1788098;79;25734;-65
2021/09/24 00:43:37;;;;;;;19.45;3.37;;;;;;;12.22;65.07;99742.09;1781708;79;27401;-65
2021/09/24 00:46:04;;;;;;;24.70;3.60;;;;;;;12.19;65.26;99747.66;1784097;79;27164;-65
2021/09/24 00:48:31;;;;;;;31.77;4.85;;;;;;;12.16;65.15;99731.73;1786930;79;26149;-65
2021/09/24 00:50:58;;;;;;;19.82;3.40;;;;;;;12.14;64.98;99744.41;1780187;79;25790;-66
2021/09/24 00:53:24;;;;;;;23.05;3.20;;;;;;;12.12;65.08;99728.86;1781190;79;25665;-65
2021/09/24 00:55:50;;;;;;;21.65;4.08;;;;;;;12.10;65.09;99747.77;1790287;79;29430;-65
2021/09/24 00:58:15;;;;;;;28.05;3.42;;;;;;;12.08;65.03;99747.00;1757905;79;25770;-65
2021/09/24 01:00:41;;;;;;;18.25;3.72;;;;;;;12.08;65.01;99746.14;1774338;79;25652;-65
2021/09/24 01:03:07;;;;;;;28.15;4.53;;;;;;;12.11;65.05;99766.09;1771572;78;26154;-65
2021/09/24 01:05:33;;;;;;;21.62;3.20;;;;;;;12.10;65.07;99762.54;1788263;78;25834;-65
2021/09/24 01:08:01;;;;;;;22.80;4.20;;;;;;;12.11;64.89;99754.00;1759544;79;27379;-65
2021/09/24 01:10:27;;;;;;;16.35;3.30;;;;;;;12.11;64.94;99771.46;1759068;79;26439;-65
2021/09/24 01:12:53;;;;;;;18.17;3.60;;;;;;;12.11;65.10;99768.30;1774622;79;25696;-65
2021/09/24 01:15:20;;;;;;;30.43;5.42;;;;;;;12.10;65.14;99785.86;1777155;79;25819;-65
2021/09/24 01:17:47;;;;;;;30.77;4.35;;;;;;;12.10;65.19;99791.23;1775027;79;26357;-65
2021/09/24 01:20:18;;;;;;;24.90;3.40;;;;;;;12.10;65.41;99783.17;1786598;79;27361;-65
2021/09/24 01:22:45;;;;;;;19.23;3.55;;;;;;;12.12;65.39;99780.77;1778854;79;30924;-65
2021/09/24 01:25:13;;;;;;;23.20;3.55;;;;;;;12.12;65.37;99774.53;1771201;79;26521;-65
2021/09/24 01:27:39;;;;;;;24.57;4.00;;;;;;;12.11;65.48;99785.76;1775771;79;25760;-65
2021/09/24 01:30:08;;;;;;;30.35;4.08;;;;;;;12.09;65.61;99783.65;1780658;79;25767;-65
2021/09/24 01:32:34;;;;;;;18.12;3.27;;;;;;;12.09;65.69;99778.75;1778151;79;27302;-67
2021/09/24 01:35:03;;;;;;;20.52;3.80;;;;;;;12.08;65.64;99791.32;1772693;79;25831;-65
2021/09/24 01:37:29;;;;;;;27.15;4.90;;;;;;;12.09;65.84;99785.47;1762508;79;25803;-65
2021/09/24 01:39:55;;;;;;;21.93;3.47;;;;;;;12.07;65.79;99787.39;1771030;79;25715;-65
2021/09/24 01:42:22;;;;;;;24.02;3.67;;;;;;;12.08;65.92;99791.80;1782249;79;25617;-65
2021/09/24 01:44:49;;;;;;;16.77;4.00;;;;;;;12.07;66.01;99790.08;1774545;79;27302;-64
2021/09/24 01:47:15;;;;;;;24.52;4.08;;;;;;;12.06;66.11;99774.92;1782197;79;25732;-64
2021/09/24 01:49:40;;;;;;;28.15;3.75;;;;;;;12.05;66.21;99775.41;1773518;79;25745;-64
2021/09/24 01:52:08;;;;;;;33.63;6.03;;;;;;;12.06;66.35;99780.30;1781169;79;25774;-64
2021/09/24 01:54:34;;;;;;;23.02;3.72;;;;;;;12.06;66.42;99793.24;1781297;79;25744;-65
2021/09/24 01:57:00;;;;;;;26.37;4.83;;;;;;;12.06;66.55;99793.72;1761772;79;27460;-64
2021/09/24 01:59:26;;;;;;;27.67;4.30;;;;;;;12.06;66.61;99801.78;1774198;79;27208;-64
2021/09/24 02:01:52;;;;;;;30.15;4.08;;;;;;;12.08;66.57;99798.52;1777534;79;25713;-64
2021/09/24 02:04:19;;;;;;;24.85;4.42;;;;;;;12.09;66.41;99798.91;1773193;79;25928;-64
2021/09/24 02:06:45;;;;;;;25.77;3.85;;;;;;;12.07;66.61;99812.91;1774193;79;25683;-64
2021/09/24 02:09:12;;;;;;;21.17;4.03;;;;;;;12.07;66.66;99810.22;1773851;79;27435;-65
2021/09/24 02:11:38;;;;;;;32.70;3.58;;;;;;;12.06;66.71;99796.41;1779012;78;25673;-65
2021/09/24 02:14:05;;;;;;;29.23;4.78;;;;;;;12.03;66.78;99802.36;1762509;79;25666;-64
2021/09/24 02:16:30;;;;;;;30.12;5.17;;;;;;;12.03;66.76;99798.33;1777696;79;27810;-64
2021/09/24 02:18:56;;;;;;;30.43;3.35;;;;;;;12.03;66.80;99796.98;1774440;79;26385;-65
2021/09/24 02:21:23;;;;;;;19.95;4.25;;;;;;;12.02;66.83;99797.08;1772298;79;27457;-65
2021/09/24 02:23:49;;;;;;;30.05;3.47;;;;;;;12.01;66.93;99809.64;1780693;78;25711;-65
2021/09/24 02:26:15;;;;;;;29.75;4.28;;;;;;;12.03;66.93;99813.58;1772686;79;25714;-64
2021/09/24 02:28:43;;;;;;;27.48;3.42;;;;;;;12.02;66.95;99811.37;1767801;79;25727;-65
2021/09/24 02:31:10;;;;;;;22.05;3.47;;;;;;;12.01;66.94;99804.27;1779013;78;25690;-65
2021/09/24 02:33:38;;;;;;;31.10;4.85;;;;;;;12.00;66.98;99809.74;1766444;79;27411;-64
2021/09/24 02:36:07;;;;;;;25.72;3.27;;;;;;;11.98;67.01;99813.00;1773448;79;25912;-64
2021/09/24 02:38:33;;;;;;;24.07;3.65;;;;;;;11.96;67.17;99811.76;1767834;79;26481;-65
2021/09/24 02:41:01;;;;;;;19.40;3.70;;;;;;;11.93;67.27;99845.52;1771977;79;25754;-64
2021/09/24 02:43:27;;;;;;;22.15;3.08;;;;;;;11.89;67.41;99805.04;1763115;79;25831;-64
2021/09/24 02:45:53;;;;;;;21.73;3.90;;;;;;;11.79;67.54;99795.83;1778245;79;27469;-64
2021/09/24 02:48:19;;;;;;;24.85;3.47;;;;;;;11.81;67.72;99830.16;1773311;78;27087;-65
2021/09/24 02:50:46;;;;;;;28.23;3.55;;;;;;;11.77;67.91;99826.37;1784242;79;25704;-65
2021/09/24 02:53:12;;;;;;;16.80;4.10;;;;;;;11.72;68.03;99823.97;1774992;79;25769;-64
2021/09/24 02:55:38;;;;;;;31.33;3.87;;;;;;;11.68;68.24;99822.44;1772650;79;26202;-64
2021/09/24 02:58:04;;;;;;;24.37;3.40;;;;;;;11.63;68.42;99836.61;1769703;78;27517;-65
2021/09/24 03:00:31;;;;;;;31.70;5.17;;;;;;;11.59;68.68;99849.36;1782642;79;25753;-64
2021/09/24 03:02:57;;;;;;;28.62;4.12;;;;;;;11.55;68.91;99873.31;1775902;79;25780;-64
2021/09/24 03:05:24;;;;;;;24.23;3.85;;;;;;;11.51;69.10;99870.90;1768701;79;26262;-64
2021/09/24 03:07:50;;;;;;;28.77;3.37;;;;;;;11.47;69.30;99860.82;1782519;79;25852;-64
2021/09/24 03:10:18;;;;;;;23.90;3.40;;;;;;;11.42;69.41;99858.02;1772445;79;27403;-65
2021/09/24 03:12:45;;;;;;;30.37;4.20;;;;;;;11.35;69.65;99858.39;1763386;79;26002;-65
2021/09/24 03:15:13;;;;;;;22.77;4.90;;;;;;;11.29;69.88;99882.89;1775207;79;25715;-65
2021/09/24 03:17:40;;;;;;;26.90;3.83;;;;;;;11.23;70.07;99876.55;1766990;79;26405;-65
2021/09/24 03:20:08;;;;;;;28.77;4.28;;;;;;;11.20;70.24;99880.75;1766645;79;25749;-64
2021/09/24 03:22:34;;;;;;;23.40;4.20;;;;;;;11.19;70.82;99903.64;1771885;79;27352;-65
2021/09/24 03:25:00;;;;;;;28.67;4.25;;;;;;;11.18;71.01;99879.11;1742991;80;26201;-65
2021/09/24 03:27:28;;;;;;;31.02;3.85;;;;;;;11.15;71.21;99915.49;1780708;79;25852;-64
2021/09/24 03:29:53;;;;;;;23.85;3.45;;;;;;;11.12;71.28;99895.08;1784584;79;25701;-65
2021/09/24 03:32:19;;;;;;;26.07;4.65;;;;;;;11.11;71.53;99892.01;1770038;79;25747;-65
2021/09/24 03:34:47;;;;;;;25.00;3.90;;;;;;;11.10;71.58;99876.87;1773051;79;27313;-65
2021/09/24 03:37:14;;;;;;;24.77;3.62;;;;;;;11.08;71.72;99880.11;1756109;79;25683;-65
2021/09/24 03:39:42;;;;;;;23.73;3.30;;;;;;;11.05;71.84;99882.50;1782857;78;25915;-65
2021/09/24 03:42:09;;;;;;;30.35;4.12;;;;;;;11.06;72.17;99880.67;1765931;78;26456;-65
2021/09/24 03:44:36;;;;;;;28.70;3.70;;;;;;;11.04;72.26;99891.49;1777763;79;25654;-65
2021/09/24 03:47:04;;;;;;;32.48;3.98;;;;;;;11.04;72.30;99890.62;1776541;79;27384;-65
2021/09/24 03:49:29;;;;;;;16.82;3.45;;;;;;;11.01;72.28;99888.13;1757374;79;27211;-65
2021/09/24 03:51:56;;;;;;;22.87;2.95;;;;;;;10.96;72.43;99896.43;1776904;79;25931;-65
2021/09/24 03:54:22;;;;;;;25.45;4.15;;;;;;;11.00;72.63;99900.66;1761050;79;25760;-66
2021/09/24 03:56:48;;;;;;;27.67;3.60;;;;;;;11.00;72.62;99897.98;1770599;79;25761;-65
2021/09/24 03:59:14;;;;;;;31.70;3.60;;;;;;;10.99;72.68;99898.94;1779042;78;27390;-65
2021/09/24 04:01:41;;;;;;;20.30;4.33;;;;;;;11.00;72.81;99901.14;1762334;79;26300;-65
2021/09/24 04:04:07;;;;;;;34.73;5.17;;;;;;;10.99;72.86;99923.55;1750972;79;25761;-65
2021/09/24 04:06:33;;;;;;;25.30;3.17;;;;;;;10.97;72.88;99898.63;1765953;79;25816;-65
2021/09/24 04:08:59;;;;;;;22.90;3.50;;;;;;;10.94;73.05;99902.83;1772585;78;25780;-65
2021/09/24 04:11:26;;;;;;;18.50;3.10;;;;;;;10.91;73.20;99911.91;1775313;79;27450;-65
2021/09/24 04:13:52;;;;;;;20.80;3.15;;;;;;;10.91;73.19;99898.98;1774378;79;25866;-65
2021/09/24 04:16:20;;;;;;;27.27;3.60;;;;;;;10.89;73.24;99899.06;1761995;79;25676;-65
2021/09/24 04:18:46;;;;;;;25.32;3.75;;;;;;;10.91;73.62;99899.84;1754493;79;25744;-65
2021/09/24 04:21:12;;;;;;;26.33;4.42;;;;;;;10.92;73.63;99903.39;1761565;79;25779;-65
2021/09/24 04:23:39;;;;;;;19.20;3.25;;;;;;;10.95;73.66;99905.90;1778194;79;27442;-65
2021/09/24 04:26:05;;;;;;;28.98;3.45;;;;;;;10.97;73.62;99918.74;1774195;78;25845;-65
2021/09/24 04:28:32;;;;;;;24.92;5.33;;;;;;;10.96;73.88;99923.72;1776343;79;26704;-65
2021/09/24 04:30:58;;;;;;;22.37;4.35;;;;;;;11.07;73.78;99915.93;1781306;79;25773;-65
2021/09/24 04:33:24;;;;;;;25.95;4.33;;;;;;;11.11;73.69;99916.63;1766339;79;25742;-66
2021/09/24 04:35:50;;;;;;;16.50;2.75;;;;;;;11.14;73.70;99925.36;1783732;78;28475;-65
2021/09/24 04:38:16;;;;;;;17.82;3.42;;;;;;;11.18;73.70;99922.02;1774192;79;27248;-65
2021/09/24 04:40:42;;;;;;;25.23;4.30;;;;;;;11.21;73.72;99944.17;1775170;79;25717;-66
2021/09/24 04:43:08;;;;;;;18.40;2.83;;;;;;;11.24;73.70;99929.24;1774958;79;25907;-66
2021/09/24 04:45:36;;;;;;;24.45;3.65;;;;;;;11.25;73.61;99942.18;1771502;79;26513;-65
2021/09/24 04:48:01;;;;;;;25.90;3.58;;;;;;;11.25;73.53;99926.09;1759779;79;27365;-65
2021/09/24 04:50:28;;;;;;;24.72;3.70;;;;;;;11.24;73.57;99939.97;1776908;78;25710;-65
2021/09/24 04:52:54;;;;;;;27.05;4.20;;;;;;;11.23;73.57;99948.11;1771468;78;25653;-66
2021/09/24 04:55:20;;;;;;;18.32;2.80;;;;;;;11.22;73.56;99929.80;1774161;79;25843;-65
2021/09/24 04:57:46;;;;;;;29.10;4.72;;;;;;;11.24;73.67;99957.41;1778900;79;25756;-65
2021/09/24 05:00:13;;;;;;;25.15;4.33;;;;;;;11.29;73.65;99946.41;1772049;79;29507;-65
2021/09/24 05:02:40;;;;;;;22.27;4.37;;;;;;;11.28;73.64;99979.09;1777606;79;26266;-65
2021/09/24 05:05:09;;;;;;;21.55;3.27;;;;;;;11.26;73.61;99955.50;1781237;79;26521;-65
2021/09/24 05:07:37;;;;;;;26.55;3.70;;;;;;;11.27;73.75;99977.83;1776303;79;26112;-66
2021/09/24 05:10:05;;;;;;;26.35;3.70;;;;;;;11.23;73.72;99966.41;1762312;79;26423;-65
2021/09/24 05:12:32;;;;;;;27.85;4.22;;;;;;;11.22;73.84;99973.20;1769267;79;27354;-66
2021/09/24 05:14:58;;;;;;;23.57;4.15;;;;;;;11.19;73.88;99967.53;1791520;78;25644;-66
2021/09/24 05:17:24;;;;;;;28.70;4.70;;;;;;;11.15;73.93;99978.05;1783715;79;25744;-65
2021/09/24 05:19:51;;;;;;;28.90;4.30;;;;;;;11.14;74.08;99974.11;1787999;79;25743;-65
2021/09/24 05:22:17;;;;;;;33.50;4.50;;;;;;;11.13;74.17;99966.55;1784595;79;25726;-65
2021/09/24 05:24:43;;;;;;;27.02;5.20;;;;;;;11.11;74.19;99968.92;1770434;79;27807;-65
2021/09/24 05:27:09;;;;;;;26.65;3.98;;;;;;;11.09;74.34;99983.76;1786229;79;25813;-66
2021/09/24 05:29:35;;;;;;;30.27;5.00;;;;;;;11.10;74.51;99997.55;1782632;79;25666;-66
2021/09/24 05:32:01;;;;;;;40.10;6.35;;;;;;;11.10;74.44;99981.47;1780716;79;25880;-66
2021/09/24 05:34:27;;;;;;;21.37;4.10;;;;;;;11.11;74.44;99994.40;1769186;79;25640;-65
2021/09/24 05:36:53;;;;;;;31.48;4.20;;;;;;;11.13;74.51;99998.73;1792221;79;27443;-65
2021/09/24 05:39:19;;;;;;;24.27;4.37;;;;;;;11.17;74.49;99997.61;1787869;78;25916;-66
2021/09/24 05:41:45;;;;;;;23.98;4.50;;;;;;;11.21;74.52;100010.37;1779088;79;25740;-66
2021/09/24 05:44:11;;;;;;;22.15;4.22;;;;;;;11.25;74.53;100001.20;1766299;79;26123;-66
2021/09/24 05:46:37;;;;;;;30.30;4.83;;;;;;;11.26;74.47;99995.75;1762517;79;26547;-65
2021/09/24 05:49:03;;;;;;;27.32;4.35;;;;;;;11.31;74.49;99999.52;1770761;79;27419;-65
2021/09/24 05:51:29;;;;;;;21.42;3.85;;;;;;;11.35;74.44;100011.80;1779673;79;26336;-65
2021/09/24 05:53:55;;;;;;;23.15;4.50;;;;;;;11.42;74.35;100015.87;1778522;79;25789;-65
2021/09/24 05:56:21;;;;;;;20.43;3.58;;;;;;;11.51;74.25;100011.80;1778841;79;26561;-65
2021/09/24 05:58:47;;;;;;;25.52;4.12;;;;;;;11.57;74.10;100008.76;1786078;79;25821;-65
2021/09/24 06:01:13;;;;;;;17.77;3.60;;;;;;;11.61;73.98;100011.66;1767023;79;27428;-65
2021/09/24 06:03:39;;;;;;;24.32;3.77;;;;;;;11.65;73.99;100032.00;1762851;79;26117;-66
2021/09/24 06:06:05;;;;;;;21.73;3.67;;;;;;;11.69;73.92;100006.70;1773779;78;26606;-65
2021/09/24 06:08:31;;;;;;;16.07;2.87;;;;;;;11.70;73.90;100021.39;1776737;79;26151;-65
2021/09/24 06:10:57;;;;;;;17.25;2.98;;;;;;;11.71;73.88;100015.06;1784286;78;25782;-65
2021/09/24 06:13:23;;;;;;;24.77;3.45;;;;;;;11.72;73.94;100081.70;1768116;78;26570;-65
2021/09/24 06:15:49;;;;;;;16.57;2.65;;;;;;;11.68;73.93;100017.06;1773907;79;27195;-66
2021/09/24 06:18:16;;;;;;;24.57;4.55;;;;;;;11.68;74.18;100077.46;1772096;78;25730;-65
2021/09/24 06:20:43;;;;;;;20.65;3.42;;;;;;;11.62;74.22;100060.36;1781978;78;25798;-66
2021/09/24 06:23:10;;;;;;;20.95;3.30;;;;;;;11.61;74.34;100033.13;1773203;79;25753;-65
2021/09/24 06:25:36;;;;;;;12.95;3.27;;;;;;;11.61;74.57;100045.20;1769887;79;27514;-65
2021/09/24 06:28:02;;;;;;;26.07;2.87;;;;;;;11.59;74.60;100044.43;1773489;79;26496;-65
2021/09/24 06:30:29;;;;;;;13.72;3.05;;;;;;;11.61;74.77;100069.37;1763903;78;25758;-66
2021/09/24 06:32:55;;;;;;;16.40;3.50;;;;;;;11.59;74.84;100064.09;1779106;78;25718;-65
2021/09/24 06:35:22;;;;;;;15.58;3.00;;;;;;;11.62;74.89;100068.41;1773468;79;26422;-65
2021/09/24 06:37:48;;;;;;;25.05;3.40;;;;;;;11.62;74.95;100057.20;1759564;79;28345;-65
2021/09/24 06:40:14;;;;;;;13.28;2.50;;;;;;;11.65;74.99;100063.73;1777631;78;25812;-66
2021/09/24 06:42:41;;;;;;;17.45;3.35;;;;;;;11.67;74.92;100060.48;1784399;79;25781;-66
2021/09/24 06:45:11;;;;;;;21.25;4.17;;;;;;;11.71;74.96;100086.68;1774073;79;25879;-65
2021/09/24 06:47:37;;;;;;;18.42;3.12;;;;;;;11.73;74.94;100077.20;1782238;79;25714;-63
2021/09/24 06:50:05;;;;;;;15.40;2.98;;;;;;;11.73;74.88;100082.09;1784601;79;27354;-63
2021/09/24 06:52:31;;;;;;;17.25;3.92;;;;;;;11.73;74.89;100079.41;1777072;79;25783;-64
2021/09/24 06:54:59;;;;;;;19.48;2.45;;;;;;;11.75;74.92;100090.92;1774116;79;25835;-63
2021/09/24 06:57:26;;;;;;;18.98;3.22;;;;;;;11.76;74.93;100090.45;1768730;78;25697;-63
2021/09/24 06:59:52;;;;;;;15.88;2.80;;;;;;;11.77;74.95;100086.37;1765257;79;25666;-64
2021/09/24 07:02:18;;;;;;;15.48;3.47;;;;;;;11.79;75.02;100085.80;1760515;79;29413;-64
2021/09/24 07:04:43;;;;;;;22.22;3.60;;;;;;;11.81;75.04;100097.32;1754542;80;27242;-63
2021/09/24 07:07:09;;;;;;;15.72;3.12;;;;;;;11.83;75.01;100093.20;1742933;80;25730;-63
2021/09/24 07:09:36;;;;;;;21.68;2.75;;;;;;;11.87;75.09;100114.42;1752094;79;25821;-63
2021/09/24 07:12:06;;;;;;;19.50;3.30;;;;;;;11.85;75.16;100131.10;1756520;79;25757;-63
2021/09/24 07:14:32;;;;;;;19.37;2.50;;;;;;;11.86;75.09;100116.72;1756693;79;27366;-64
2021/09/24 07:16:59;;;;;;;19.50;3.47;;;;;;;11.89;75.11;100114.34;1751121;79;25775;-64
2021/09/24 07:19:27;;;;;;;20.45;2.83;;;;;;;11.92;75.18;100102.95;1741335;78;25841;-65
2021/09/24 07:21:54;;;;;;;15.35;2.47;;;;;;;11.96;75.06;100107.66;1759886;79;27869;-63
2021/09/24 07:24:19;;;;;;;24.70;4.25;;;;;;;12.02;75.10;100121.60;1743649;80;26449;-64
2021/09/24 07:26:46;;;;;;;19.05;2.55;;;;;;;12.06;74.97;100128.14;1760767;79;29521;-64
2021/09/24 07:29:12;;;;;;;14.80;2.37;;;;;;;12.11;74.83;100136.33;1732299;80;25719;-64
2021/09/24 07:31:38;;;;;;;14.78;2.70;;;;;;;12.12;74.65;100119.25;1752537;80;25732;-63
2021/09/24 07:34:04;;;;;;;20.82;3.75;;;;;;;12.19;74.40;100137.23;1753887;79;26403;-64
2021/09/24 07:36:30;;;;;;;20.60;3.33;;;;;;;12.19;74.37;100139.44;1747444;79;25849;-64
2021/09/24 07:38:57;;;;;;;17.90;3.27;;;;;;;12.24;74.42;100153.95;1756181;79;27744;-63
2021/09/24 07:41:23;;;;;;;19.82;3.08;;;;;;;12.29;74.18;100156.75;1752551;79;25797;-64
2021/09/24 07:43:53;;;;;;;20.00;4.03;;;;;;;12.31;73.98;100136.03;1757257;79;26576;-64
2021/09/24 07:46:21;;;;;;;25.65;3.58;;;;;;;12.37;73.85;100148.25;1739180;79;25825;-63
2021/09/24 07:48:48;;;;;;;18.50;3.00;;;;;;;12.47;73.88;100149.44;1737580;79;25898;-63
2021/09/24 07:51:15;;;;;;;16.67;3.05;;;;;;;12.59;73.59;100143.33;1753951;80;29461;-64
2021/09/24 07:53:41;;;;;;;17.98;3.27;;;;;;;12.66;73.66;100144.70;1740020;80;25724;-63
2021/09/24 07:56:09;;;;;;;21.85;3.17;;;;;;;12.74;73.43;100147.41;1752567;79;25811;-64
2021/09/24 07:58:40;;;;;;;17.20;3.12;;;;;;;12.76;72.81;100162.50;1756305;79;26090;-65
2021/09/24 08:01:03;;;;;;;21.70;3.10;;;;;;;12.75;72.50;100167.48;1749882;80;26400;-63
2021/09/24 08:03:29;;;;;;;18.07;2.72;;;;;;;12.76;72.35;100158.94;1772223;79;26558;-63
2021/09/24 08:05:55;;;;;;;19.30;2.65;;;;;;;12.77;72.11;100144.05;1768445;79;27196;-64
2021/09/24 08:08:21;;;;;;;17.27;3.00;;;;;;;12.79;72.14;100150.20;1781822;79;25789;-63
2021/09/24 08:10:47;;;;;;;21.15;4.37;;;;;;;12.79;71.71;100172.20;1768410;79;26391;-63
2021/09/24 08:13:13;;;;;;;20.12;3.52;;;;;;;12.76;71.75;100165.66;1788765;79;26549;-63
2021/09/24 08:15:43;;;;;;;19.15;2.85;;;;;;;12.72;71.65;100168.15;1790969;79;28399;-64
2021/09/24 08:18:07;;;;;;;22.25;4.00;;;;;;;12.71;71.74;100168.63;1781985;79;25678;-64
2021/09/24 08:20:33;;;;;;;22.55;4.00;;;;;;;12.72;71.72;100169.49;1788991;79;25893;-64
2021/09/24 08:22:59;;;;;;;17.32;3.12;;;;;;;12.75;71.82;100169.31;1780987;78;25666;-66
2021/09/24 08:25:25;;;;;;;14.87;3.08;;;;;;;12.80;71.80;100173.45;1778969;79;25721;-64
2021/09/24 08:27:51;;;;;;;13.80;3.20;;;;;;;12.81;71.71;100177.01;1790379;79;27398;-64
2021/09/24 08:30:22;;;;;;;15.32;3.30;;;;;;;12.77;71.64;100184.88;1787888;79;26518;-64
2021/09/24 08:32:47;;;;;;;19.48;3.15;;;;;;;12.72;71.61;100189.18;1784544;79;26404;-65
2021/09/24 08:35:16;;;;;;;17.55;3.15;;;;;;;12.70;71.78;100192.92;1777411;78;25736;-64
2021/09/24 08:37:47;;;;;;;22.27;3.70;;;;;;;12.72;71.77;100193.22;1786697;79;25715;-62
2021/09/24 08:40:12;;;;;;;22.82;3.50;;;;;;;12.77;71.81;100207.73;1760077;79;27314;-64
2021/09/24 08:42:41;;;;;;;25.75;3.98;;;;;;;12.85;71.76;100210.83;1774548;79;25777;-64
2021/09/24 08:45:15;;;;;;;18.12;3.35;;;;;;;12.89;71.68;100198.94;1780320;79;25762;-64
2021/09/24 08:47:41;;;;;;;16.70;3.58;;;;;;;12.99;71.70;100205.02;1786189;78;25877;-63
2021/09/24 08:50:09;;;;;;;16.15;2.85;;;;;;;13.09;71.34;100191.84;1779269;79;25916;-64
2021/09/24 08:52:37;;;;;;;23.12;3.08;;;;;;;13.17;71.28;100200.83;1780084;79;27410;-63
2021/09/24 08:55:07;;;;;;;21.55;3.47;;;;;;;13.23;70.86;100203.14;1786045;79;25819;-63
2021/09/24 08:57:34;;;;;;;15.55;2.27;;;;;;;13.23;70.42;100220.16;1784920;79;25694;-64
2021/09/24 09:00:02;;;;;;;18.45;3.33;;;;;;;13.27;70.37;100197.47;1788106;79;27853;-63
2021/09/24 09:02:28;;;;;;;14.20;2.50;;;;;;;13.38;70.45;100202.67;1771339;79;25769;-63
2021/09/24 09:04:56;;;;;;;18.07;2.72;;;;;;;13.45;69.38;100198.16;1766127;79;27474;-63
2021/09/24 09:07:22;;;;;;;17.57;2.52;;;;;;;13.43;69.02;100264.70;1767781;79;25764;-63
2021/09/24 09:09:52;;;;;;;16.75;3.02;;;;;;;13.42;69.03;100211.81;1772397;79;25698;-64
2021/09/24 09:12:23;;;;;;;17.92;3.30;;;;;;;13.44;69.17;100206.33;1773785;79;25798;-64
2021/09/24 09:15:09;;;;;;;19.12;3.80;;;;;;;13.50;69.19;100229.70;1708534;82;26442;-64
2021/09/24 09:17:50;;;;;;;14.35;3.20;;;;;;;13.53;69.16;100216.05;1771654;79;27363;-62
2021/09/24 09:20:34;;;;;;;13.18;2.87;;;;;;;13.57;69.15;100214.90;1756031;79;30294;-62
2021/09/24 09:23:08;;;;;;;20.60;3.52;;;;;;;13.54;68.62;100235.28;1763644;79;25737;-63
2021/09/24 09:25:39;;;;;;;19.23;3.83;;;;;;;13.52;68.56;100224.22;1771727;79;25720;-62
2021/09/24 09:28:16;;;;;;;13.20;2.95;;;;;;;13.45;68.40;100233.16;1761512;79;25692;-64
2021/09/24 09:30:45;;;;;;;25.05;3.60;;;;;;;13.40;68.14;100238.44;1767308;79;45976;-63
2021/09/24 09:33:16;;;;;;;24.57;3.58;;;;;;;13.39;68.18;100223.25;1774682;79;25668;-63
2021/09/24 09:35:53;;;;;;;17.65;3.25;;;;;;;13.45;68.06;100237.68;1772720;78;25685;-62
2021/09/24 09:38:32;;;;;;;20.57;3.35;;;;;;;13.43;67.98;100235.56;1766801;79;25864;-63
2021/09/24 09:41:12;;;;;;;15.95;3.52;;;;;;;13.45;68.24;100237.68;1764687;79;25860;-64
2021/09/24 09:43:49;;;;;;;19.90;3.55;;;;;;;13.45;67.98;100247.10;1787873;78;27962;-63
2021/09/24 09:46:20;;;;;;;23.67;3.15;;;;;;;13.45;68.08;100253.36;1779082;78;25777;-65
2021/09/24 09:49:07;;;;;;;;;;;;;;;13.51;67.86;100246.25;1785902;78;25754;-63
2021/09/24 09:51:36;;;;;;;17.70;2.70;;;;;;;13.54;67.62;100242.50;1748389;80;26633;-63
2021/09/24 09:54:02;;;;;;;17.20;3.35;;;;;;;13.51;67.38;100254.80;1760358;79;25777;-63
2021/09/24 09:56:41;;;;;;;21.05;4.10;;;;;;;13.59;67.29;100253.85;1746743;80;27562;-63
2021/09/24 09:59:28;;;;;;;12.55;3.05;;;;;;;13.63;67.31;100261.64;1790218;78;25654;-63
2021/09/24 10:02:17;;;;;;;17.20;3.62;;;;;;;13.74;67.31;100240.77;1779580;78;25946;-63
2021/09/24 10:04:52;;;;;;;27.30;4.95;;;;;;;13.81;66.60;100279.83;1777860;79;26480;-64
2021/09/24 10:07:28;;;;;;;20.52;4.83;;;;;;;13.83;66.54;100260.41;1758783;79;25789;-63
2021/09/24 10:10:14;;;;;;;17.23;3.00;;;;;;;13.95;66.16;100268.19;1769924;79;29424;-63
2021/09/24 10:12:43;;;;;;;23.00;3.70;;;;;;;14.01;66.39;100257.51;1772350;78;25746;-63
2021/09/24 10:15:14;;;;;;;25.77;3.55;;;;;;;14.08;66.18;100254.80;1789234;79;26189;-63
2021/09/24 10:17:40;;;;;;;17.17;3.05;;;;;;;14.14;65.98;100247.19;1763748;79;26098;-64
2021/09/24 10:20:09;;;;;;;23.90;2.95;;;;;;;14.18;65.66;100251.42;1772927;79;25702;-63
2021/09/24 10:22:35;;;;;;;21.97;3.30;;;;;;;14.27;65.98;100248.61;1775320;78;27461;-63
2021/09/24 10:25:03;;;;;;;22.75;3.83;;;;;;;14.43;65.83;100250.73;1782648;79;25925;-64
2021/09/24 10:27:33;;;;;;;14.35;2.70;;;;;;;14.53;64.98;100272.08;1787064;78;25671;-64
2021/09/24 10:30:10;;;;;;;20.65;3.22;;;;;;;14.52;64.41;100252.81;1772367;78;26424;-63
2021/09/24 10:32:38;;;;;;;16.90;3.65;;;;;;;14.46;63.90;100251.01;1775334;79;25844;-63
2021/09/24 10:35:10;;;;;;;29.27;4.47;;;;;;;14.47;63.27;100258.13;1765540;80;28007;-62
2021/09/24 10:37:40;;;;;;;22.82;3.62;;;;;;;14.50;62.82;100276.81;1781687;79;26312;-63
2021/09/24 10:40:26;;;;;;;16.07;2.27;;;;;;;14.58;62.24;100251.55;1770153;79;26149;-62
2021/09/24 10:42:58;;;;;;;23.55;3.55;;;;;;;14.64;62.08;100262.42;1760251;79;26157;-65
2021/09/24 10:45:34;;;;;;;;;;;;;;;14.69;62.09;100253.53;1726737;81;26391;-62
2021/09/24 10:48:27;;;;;;;18.60;2.58;;;;;;;14.73;61.41;100252.36;1780160;79;28282;-61
2021/09/24 10:51:05;;;;;;;20.60;2.87;;;;;;;14.76;60.75;100250.81;1775682;79;26294;-62
2021/09/24 10:53:40;;;;;;;12.78;2.40;;;;;;;14.79;61.31;100252.81;1778932;79;25764;-63
2021/09/24 10:56:11;;;;;;;19.42;3.25;;;;;;;14.85;60.98;100267.73;1774761;79;25730;-63
2021/09/24 10:58:41;;;;;;;18.92;3.15;;;;;;;14.81;60.59;100268.91;1744856;80;25704;-62
2021/09/24 11:01:17;;;;;;;20.12;3.12;;;;;;;14.74;60.16;100256.80;1765738;78;29515;-62
2021/09/24 11:03:58;;;;;;;8.98;2.30;;;;;;;14.77;60.58;100262.84;1766382;79;26462;-62
2021/09/24 11:06:37;;;;;;;18.00;2.72;;;;;;;14.84;60.15;100258.77;1786910;78;31286;-61
2021/09/24 11:09:07;;;;;;;14.90;2.77;;;;;;;14.91;59.78;100247.95;1774177;79;26738;-62
2021/09/24 11:11:36;;;;;;;16.60;3.40;;;;;;;14.92;59.07;100265.87;1777962;79;25744;-62
2021/09/24 11:14:34;;;;;;;17.23;2.95;;;;;;;14.84;59.24;100270.91;1788947;78;27997;-62
2021/09/24 11:17:02;;;;;;;17.50;2.98;;;;;;;14.82;58.99;100263.89;1730294;80;25728;-62
2021/09/24 11:19:39;;;;;;;14.25;2.72;;;;;;;14.83;59.12;100261.58;1754432;80;25884;-62
2021/09/24 11:22:13;;;;;;;16.40;2.77;;;;;;;14.82;58.99;100249.91;1766612;79;25745;-62
2021/09/24 11:24:47;;;;;;;11.30;2.52;;;;;;;14.88;59.81;100257.59;1769341;79;26426;-62
2021/09/24 11:27:18;;;;;;;20.92;3.33;;;;;;;15.05;60.10;100252.89;1778168;78;27457;-62